sensor_id;sensor_type;location;lat;lon;timestamp;temperature;humidity
31991;DHT22;18508;49.386;8.370;2022-11-13T00:01:40;6.70;99.90
31991;DHT22;18508;49.386;8.370;2022-11-13T00:04:13;6.70;99.90
31991;DHT22;18508;49.386;8.370;2022-11-13T00:06:41;6.60;99.90
31991;DHT22;18508;49.386;8.370;2022-11-13T00:09:10;6.60;99.90
31991;DHT22;18508;49.386;8.370;2022-11-13T00:11:43;6.60;99.90
31991;DHT22;18508;49.386;8.370;2022-11-13T00:14:13;6.70;99.90
31991;DHT22;18508;49.386;8.370;2022-11-13T00:16:41;6.70;99.90
31991;DHT22;18508;49.386;8.370;2022-11-13T00:19:12;6.70;99.90
31991;DHT22;18508;49.386;8.370;2022-11-13T00:21:46;6.60;99.90
31991;DHT22;18508;49.386;8.370;2022-11-13T00:24:14;6.60;99.90
31991;DHT22;18508;49.386;8.370;2022-11-13T00:26:43;6.60;99.90
31991;DHT22;18508;49.386;8.370;2022-11-13T00:29:12;6.60;99.90
31991;DHT22;18508;49.386;8.370;2022-11-13T00:31:43;6.60;99.90
31991;DHT22;18508;49.386;8.370;2022-11-13T00:34:16;6.60;99.90
31991;DHT22;18508;49.386;8.370;2022-11-13T00:37:08;6.60;99.90
31991;DHT22;18508;49.386;8.370;2022-11-13T00:40:00;6.50;99.90
31991;DHT22;18508;49.386;8.370;2022-11-13T00:42:33;6.50;99.90
31991;DHT22;18508;49.386;8.370;2022-11-13T00:45:08;6.60;99.90
31991;DHT22;18508;49.386;8.370;2022-11-13T00:48:03;6.50;99.90
31991;DHT22;18508;49.386;8.370;2022-11-13T00:50:43;6.60;99.90
31991;DHT22;18508;49.386;8.370;2022-11-13T00:53:29;6.50;99.90
31991;DHT22;18508;49.386;8.370;2022-11-13T00:56:12;6.50;99.90
31991;DHT22;18508;49.386;8.370;2022-11-13T00:58:59;6.60;99.90
31991;DHT22;18508;49.386;8.370;2022-11-13T01:12:38;6.60;99.90
31991;DHT22;18508;49.386;8.370;2022-11-13T01:15:31;6.40;99.90
31991;DHT22;18508;49.386;8.370;2022-11-13T01:18:06;6.30;99.90
31991;DHT22;18508;49.386;8.370;2022-11-13T01:20:45;6.30;99.90
31991;DHT22;18508;49.386;8.370;2022-11-13T01:23:18;6.40;99.90
31991;DHT22;18508;49.386;8.370;2022-11-13T01:25:55;6.30;99.90
31991;DHT22;18508;49.386;8.370;2022-11-13T01:28:37;6.30;99.90
31991;DHT22;18508;49.386;8.370;2022-11-13T01:31:17;6.30;99.90
31991;DHT22;18508;49.386;8.370;2022-11-13T01:33:54;6.40;99.90
31991;DHT22;18508;49.386;8.370;2022-11-13T01:36:24;6.40;99.90
31991;DHT22;18508;49.386;8.370;2022-11-13T01:38:53;6.40;99.90
31991;DHT22;18508;49.386;8.370;2022-11-13T01:41:24;6.30;99.90
31991;DHT22;18508;49.386;8.370;2022-11-13T01:43:54;6.40;99.90
31991;DHT22;18508;49.386;8.370;2022-11-13T01:46:26;6.40;99.90
31991;DHT22;18508;49.386;8.370;2022-11-13T01:49:01;6.50;99.90
31991;DHT22;18508;49.386;8.370;2022-11-13T01:51:32;6.40;99.90
31991;DHT22;18508;49.386;8.370;2022-11-13T01:54:05;6.40;99.90
31991;DHT22;18508;49.386;8.370;2022-11-13T01:56:35;6.30;99.90
31991;DHT22;18508;49.386;8.370;2022-11-13T01:59:10;6.30;99.90
31991;DHT22;18508;49.386;8.370;2022-11-13T02:01:41;6.30;99.90
31991;DHT22;18508;49.386;8.370;2022-11-13T02:04:11;6.30;99.90
31991;DHT22;18508;49.386;8.370;2022-11-13T02:06:45;6.20;99.90
31991;DHT22;18508;49.386;8.370;2022-11-13T02:09:19;6.20;99.90
31991;DHT22;18508;49.386;8.370;2022-11-13T02:11:49;6.20;99.90
31991;DHT22;18508;49.386;8.370;2022-11-13T02:14:23;6.20;99.90
31991;DHT22;18508;49.386;8.370;2022-11-13T02:16:56;6.20;99.90
31991;DHT22;18508;49.386;8.370;2022-11-13T02:19:32;6.20;99.90
31991;DHT22;18508;49.386;8.370;2022-11-13T02:22:12;6.10;99.90
31991;DHT22;18508;49.386;8.370;2022-11-13T02:24:47;6.20;99.90
31991;DHT22;18508;49.386;8.370;2022-11-13T02:27:25;6.10;99.90
31991;DHT22;18508;49.386;8.370;2022-11-13T02:29:54;6.20;99.90
31991;DHT22;18508;49.386;8.370;2022-11-13T02:32:23;6.10;99.90
31991;DHT22;18508;49.386;8.370;2022-11-13T02:34:51;6.10;99.90
31991;DHT22;18508;49.386;8.370;2022-11-13T02:37:20;5.90;99.90
31991;DHT22;18508;49.386;8.370;2022-11-13T02:39:50;5.90;99.90
31991;DHT22;18508;49.386;8.370;2022-11-13T02:42:19;5.90;99.90
31991;DHT22;18508;49.386;8.370;2022-11-13T02:44:47;5.80;99.90
31991;DHT22;18508;49.386;8.370;2022-11-13T02:47:15;5.80;99.90
31991;DHT22;18508;49.386;8.370;2022-11-13T02:49:52;5.70;99.90
31991;DHT22;18508;49.386;8.370;2022-11-13T02:52:20;5.70;99.90
31991;DHT22;18508;49.386;8.370;2022-11-13T02:54:50;5.70;99.90
31991;DHT22;18508;49.386;8.370;2022-11-13T02:57:19;5.70;99.90
31991;DHT22;18508;49.386;8.370;2022-11-13T02:59:47;5.70;99.90
31991;DHT22;18508;49.386;8.370;2022-11-13T03:02:17;5.70;99.90
31991;DHT22;18508;49.386;8.370;2022-11-13T03:04:48;5.70;99.90
31991;DHT22;18508;49.386;8.370;2022-11-13T03:07:36;5.70;99.90
31991;DHT22;18508;49.386;8.370;2022-11-13T03:10:09;5.70;99.90
31991;DHT22;18508;49.386;8.370;2022-11-13T03:12:42;5.70;99.90
31991;DHT22;18508;49.386;8.370;2022-11-13T03:15:14;5.80;99.90
31991;DHT22;18508;49.386;8.370;2022-11-13T03:17:43;5.80;99.90
31991;DHT22;18508;49.386;8.370;2022-11-13T03:20:17;5.80;99.90
31991;DHT22;18508;49.386;8.370;2022-11-13T03:22:46;5.80;99.90
31991;DHT22;18508;49.386;8.370;2022-11-13T03:25:17;5.80;99.90
31991;DHT22;18508;49.386;8.370;2022-11-13T03:27:47;5.80;99.90
31991;DHT22;18508;49.386;8.370;2022-11-13T03:30:15;5.70;99.90
31991;DHT22;18508;49.386;8.370;2022-11-13T03:32:45;5.70;99.90
31991;DHT22;18508;49.386;8.370;2022-11-13T03:35:14;5.70;99.90
31991;DHT22;18508;49.386;8.370;2022-11-13T03:37:43;5.60;99.90
31991;DHT22;18508;49.386;8.370;2022-11-13T03:40:12;5.70;99.90
31991;DHT22;18508;49.386;8.370;2022-11-13T03:42:47;5.60;99.90
31991;DHT22;18508;49.386;8.370;2022-11-13T03:45:16;5.60;99.90
31991;DHT22;18508;49.386;8.370;2022-11-13T03:47:44;5.50;99.90
31991;DHT22;18508;49.386;8.370;2022-11-13T03:50:13;5.50;99.90
31991;DHT22;18508;49.386;8.370;2022-11-13T03:52:45;5.40;99.90
31991;DHT22;18508;49.386;8.370;2022-11-13T03:55:13;5.30;99.90
31991;DHT22;18508;49.386;8.370;2022-11-13T03:57:43;5.30;99.90
31991;DHT22;18508;49.386;8.370;2022-11-13T04:00:17;5.20;99.90
31991;DHT22;18508;49.386;8.370;2022-11-13T04:02:47;5.20;99.90
31991;DHT22;18508;49.386;8.370;2022-11-13T04:05:16;5.20;99.90
31991;DHT22;18508;49.386;8.370;2022-11-13T04:07:48;5.20;99.90
31991;DHT22;18508;49.386;8.370;2022-11-13T04:10:19;5.10;99.90
31991;DHT22;18508;49.386;8.370;2022-11-13T04:12:57;5.10;99.90
31991;DHT22;18508;49.386;8.370;2022-11-13T04:15:26;5.20;99.90
31991;DHT22;18508;49.386;8.370;2022-11-13T04:18:00;5.10;99.90
31991;DHT22;18508;49.386;8.370;2022-11-13T04:20:49;5.20;99.90
31991;DHT22;18508;49.386;8.370;2022-11-13T04:23:25;5.20;99.90
31991;DHT22;18508;49.386;8.370;2022-11-13T04:26:04;5.20;99.90
31991;DHT22;18508;49.386;8.370;2022-11-13T04:28:58;5.20;99.90
31991;DHT22;18508;49.386;8.370;2022-11-13T04:31:32;5.20;99.90
31991;DHT22;18508;49.386;8.370;2022-11-13T04:34:13;5.30;99.90
31991;DHT22;18508;49.386;8.370;2022-11-13T04:36:55;5.20;99.90
31991;DHT22;18508;49.386;8.370;2022-11-13T04:39:32;5.30;99.90
31991;DHT22;18508;49.386;8.370;2022-11-13T04:42:03;5.30;99.90
31991;DHT22;18508;49.386;8.370;2022-11-13T04:44:58;5.20;99.90
31991;DHT22;18508;49.386;8.370;2022-11-13T04:47:29;5.30;99.90
31991;DHT22;18508;49.386;8.370;2022-11-13T04:50:06;5.20;99.90
31991;DHT22;18508;49.386;8.370;2022-11-13T04:52:45;5.30;99.90
31991;DHT22;18508;49.386;8.370;2022-11-13T04:55:19;5.20;99.90
31991;DHT22;18508;49.386;8.370;2022-11-13T04:57:53;5.10;99.90
31991;DHT22;18508;49.386;8.370;2022-11-13T05:00:31;5.10;99.90
31991;DHT22;18508;49.386;8.370;2022-11-13T05:03:03;5.20;99.90
31991;DHT22;18508;49.386;8.370;2022-11-13T05:05:46;5.20;99.90
31991;DHT22;18508;49.386;8.370;2022-11-13T05:08:28;5.20;99.90
31991;DHT22;18508;49.386;8.370;2022-11-13T05:13:36;5.10;99.90
31991;DHT22;18508;49.386;8.370;2022-11-13T05:16:24;5.10;99.90
31991;DHT22;18508;49.386;8.370;2022-11-13T05:19:03;5.10;99.90
31991;DHT22;18508;49.386;8.370;2022-11-13T05:21:44;5.00;99.90
31991;DHT22;18508;49.386;8.370;2022-11-13T05:24:31;5.00;99.90
31991;DHT22;18508;49.386;8.370;2022-11-13T05:27:25;5.00;99.90
31991;DHT22;18508;49.386;8.370;2022-11-13T05:29:57;5.00;99.90
31991;DHT22;18508;49.386;8.370;2022-11-13T05:32:50;5.00;99.90
31991;DHT22;18508;49.386;8.370;2022-11-13T05:35:25;5.00;99.90
31991;DHT22;18508;49.386;8.370;2022-11-13T05:37:59;5.00;99.90
31991;DHT22;18508;49.386;8.370;2022-11-13T05:40:34;5.00;99.90
31991;DHT22;18508;49.386;8.370;2022-11-13T05:43:16;5.00;99.90
31991;DHT22;18508;49.386;8.370;2022-11-13T05:46:02;5.00;99.90
31991;DHT22;18508;49.386;8.370;2022-11-13T05:48:51;5.00;99.90
31991;DHT22;18508;49.386;8.370;2022-11-13T05:51:33;5.10;99.90
31991;DHT22;18508;49.386;8.370;2022-11-13T05:54:15;5.10;99.90
31991;DHT22;18508;49.386;8.370;2022-11-13T05:56:52;5.10;99.90
31991;DHT22;18508;49.386;8.370;2022-11-13T05:59:20;5.10;99.90
31991;DHT22;18508;49.386;8.370;2022-11-13T06:02:05;5.10;99.90
31991;DHT22;18508;49.386;8.370;2022-11-13T06:04:47;5.10;99.90
31991;DHT22;18508;49.386;8.370;2022-11-13T06:07:22;5.20;99.90
31991;DHT22;18508;49.386;8.370;2022-11-13T06:10:06;5.20;99.90
31991;DHT22;18508;49.386;8.370;2022-11-13T06:12:48;5.20;99.90
31991;DHT22;18508;49.386;8.370;2022-11-13T06:15:20;5.20;99.90
31991;DHT22;18508;49.386;8.370;2022-11-13T06:17:51;5.20;99.90
31991;DHT22;18508;49.386;8.370;2022-11-13T06:20:27;5.30;99.90
31991;DHT22;18508;49.386;8.370;2022-11-13T06:22:57;5.20;99.90
31991;DHT22;18508;49.386;8.370;2022-11-13T06:25:29;5.20;99.90
31991;DHT22;18508;49.386;8.370;2022-11-13T06:27:58;5.20;99.90
31991;DHT22;18508;49.386;8.370;2022-11-13T06:30:35;5.20;99.90
31991;DHT22;18508;49.386;8.370;2022-11-13T06:33:06;5.10;99.90
31991;DHT22;18508;49.386;8.370;2022-11-13T06:35:41;5.10;99.90
31991;DHT22;18508;49.386;8.370;2022-11-13T06:38:16;5.10;99.90
31991;DHT22;18508;49.386;8.370;2022-11-13T06:40:45;5.10;99.90
31991;DHT22;18508;49.386;8.370;2022-11-13T06:43:14;5.10;99.90
31991;DHT22;18508;49.386;8.370;2022-11-13T06:45:54;5.10;99.90
31991;DHT22;18508;49.386;8.370;2022-11-13T06:48:27;5.00;99.90
31991;DHT22;18508;49.386;8.370;2022-11-13T06:51:07;5.00;99.90
31991;DHT22;18508;49.386;8.370;2022-11-13T06:53:44;5.00;99.90
31991;DHT22;18508;49.386;8.370;2022-11-13T06:56:15;5.00;99.90
31991;DHT22;18508;49.386;8.370;2022-11-13T06:58:46;5.00;99.90
31991;DHT22;18508;49.386;8.370;2022-11-13T07:01:17;6.50;99.90
31991;DHT22;18508;49.386;8.370;2022-11-13T07:03:49;5.20;99.90
31991;DHT22;18508;49.386;8.370;2022-11-13T07:06:23;5.60;99.90
31991;DHT22;18508;49.386;8.370;2022-11-13T07:08:54;5.20;99.90
31991;DHT22;18508;49.386;8.370;2022-11-13T07:11:24;5.10;99.90
31991;DHT22;18508;49.386;8.370;2022-11-13T07:13:58;5.10;99.90
31991;DHT22;18508;49.386;8.370;2022-11-13T07:19:20;5.10;99.90
31991;DHT22;18508;49.386;8.370;2022-11-13T07:21:51;5.00;99.90
31991;DHT22;18508;49.386;8.370;2022-11-13T07:24:20;5.00;99.90
31991;DHT22;18508;49.386;8.370;2022-11-13T07:27:00;5.00;99.90
31991;DHT22;18508;49.386;8.370;2022-11-13T07:31:58;5.10;99.90
31991;DHT22;18508;49.386;8.370;2022-11-13T07:34:32;5.20;99.90
31991;DHT22;18508;49.386;8.370;2022-11-13T07:37:02;4.10;99.90
31991;DHT22;18508;49.386;8.370;2022-11-13T07:39:33;5.20;99.90
31991;DHT22;18508;49.386;8.370;2022-11-13T07:42:05;5.20;99.90
31991;DHT22;18508;49.386;8.370;2022-11-13T07:44:35;5.20;99.90
31991;DHT22;18508;49.386;8.370;2022-11-13T07:47:26;5.30;99.90
31991;DHT22;18508;49.386;8.370;2022-11-13T07:50:05;5.40;99.90
31991;DHT22;18508;49.386;8.370;2022-11-13T07:52:39;5.50;99.90
31991;DHT22;18508;49.386;8.370;2022-11-13T07:55:14;5.40;99.90
31991;DHT22;18508;49.386;8.370;2022-11-13T07:57:47;5.40;99.90
31991;DHT22;18508;49.386;8.370;2022-11-13T08:00:35;5.30;99.90
31991;DHT22;18508;49.386;8.370;2022-11-13T08:03:24;5.30;99.90
31991;DHT22;18508;49.386;8.370;2022-11-13T08:06:03;5.40;99.90
31991;DHT22;18508;49.386;8.370;2022-11-13T08:08:37;5.50;99.90
31991;DHT22;18508;49.386;8.370;2022-11-13T08:11:17;5.50;99.90
31991;DHT22;18508;49.386;8.370;2022-11-13T08:13:51;5.60;99.90
31991;DHT22;18508;49.386;8.370;2022-11-13T08:16:33;5.70;99.90
31991;DHT22;18508;49.386;8.370;2022-11-13T08:19:05;5.70;99.90
31991;DHT22;18508;49.386;8.370;2022-11-13T08:21:36;5.80;99.90
31991;DHT22;18508;49.386;8.370;2022-11-13T08:24:12;5.80;99.90
31991;DHT22;18508;49.386;8.370;2022-11-13T08:26:43;5.80;99.90
31991;DHT22;18508;49.386;8.370;2022-11-13T08:29:23;5.80;99.90
31991;DHT22;18508;49.386;8.370;2022-11-13T08:31:55;5.80;99.90
31991;DHT22;18508;49.386;8.370;2022-11-13T08:34:30;5.70;99.90
31991;DHT22;18508;49.386;8.370;2022-11-13T08:36:59;5.70;99.90
31991;DHT22;18508;49.386;8.370;2022-11-13T08:39:33;5.60;99.90
31991;DHT22;18508;49.386;8.370;2022-11-13T08:42:03;5.50;99.90
31991;DHT22;18508;49.386;8.370;2022-11-13T08:44:35;5.50;99.90
31991;DHT22;18508;49.386;8.370;2022-11-13T08:47:06;6.70;99.90
31991;DHT22;18508;49.386;8.370;2022-11-13T08:49:41;5.40;99.90
31991;DHT22;18508;49.386;8.370;2022-11-13T08:52:13;5.30;99.90
31991;DHT22;18508;49.386;8.370;2022-11-13T08:54:48;5.20;99.90
31991;DHT22;18508;49.386;8.370;2022-11-13T08:57:19;5.30;99.90
31991;DHT22;18508;49.386;8.370;2022-11-13T08:59:56;5.40;99.90
31991;DHT22;18508;49.386;8.370;2022-11-13T09:02:30;5.50;99.90
31991;DHT22;18508;49.386;8.370;2022-11-13T09:05:03;5.60;99.90
31991;DHT22;18508;49.386;8.370;2022-11-13T09:07:34;5.70;99.90
31991;DHT22;18508;49.386;8.370;2022-11-13T09:10:07;5.70;99.90
31991;DHT22;18508;49.386;8.370;2022-11-13T09:12:40;5.80;99.90
31991;DHT22;18508;49.386;8.370;2022-11-13T09:15:13;5.90;99.90
31991;DHT22;18508;49.386;8.370;2022-11-13T09:17:54;5.90;99.90
31991;DHT22;18508;49.386;8.370;2022-11-13T09:20:24;6.00;99.90
31991;DHT22;18508;49.386;8.370;2022-11-13T09:22:56;6.00;99.90
31991;DHT22;18508;49.386;8.370;2022-11-13T09:25:27;6.20;99.90
31991;DHT22;18508;49.386;8.370;2022-11-13T09:28:05;6.30;99.90
31991;DHT22;18508;49.386;8.370;2022-11-13T09:30:36;6.40;99.90
31991;DHT22;18508;49.386;8.370;2022-11-13T09:33:06;6.30;99.90
31991;DHT22;18508;49.386;8.370;2022-11-13T09:35:39;6.20;99.90
31991;DHT22;18508;49.386;8.370;2022-11-13T09:38:14;6.10;99.90
31991;DHT22;18508;49.386;8.370;2022-11-13T09:40:47;6.10;99.90
31991;DHT22;18508;49.386;8.370;2022-11-13T09:43:27;6.10;99.90
31991;DHT22;18508;49.386;8.370;2022-11-13T09:46:05;6.00;99.90
31991;DHT22;18508;49.386;8.370;2022-11-13T09:48:37;6.10;99.90
31991;DHT22;18508;49.386;8.370;2022-11-13T09:51:12;6.20;99.90
31991;DHT22;18508;49.386;8.370;2022-11-13T09:53:42;6.30;99.90
31991;DHT22;18508;49.386;8.370;2022-11-13T09:56:24;6.40;99.90
31991;DHT22;18508;49.386;8.370;2022-11-13T09:59:05;6.30;99.90
31991;DHT22;18508;49.386;8.370;2022-11-13T10:01:47;6.30;99.90
31991;DHT22;18508;49.386;8.370;2022-11-13T10:04:23;6.40;99.90
31991;DHT22;18508;49.386;8.370;2022-11-13T10:07:16;6.40;99.90
31991;DHT22;18508;49.386;8.370;2022-11-13T10:09:59;6.50;99.90
31991;DHT22;18508;49.386;8.370;2022-11-13T10:12:34;6.50;99.90
31991;DHT22;18508;49.386;8.370;2022-11-13T10:15:09;6.50;99.90
31991;DHT22;18508;49.386;8.370;2022-11-13T10:17:43;6.60;99.90
31991;DHT22;18508;49.386;8.370;2022-11-13T10:20:22;6.80;99.90
31991;DHT22;18508;49.386;8.370;2022-11-13T10:23:00;6.90;99.90
31991;DHT22;18508;49.386;8.370;2022-11-13T10:25:33;7.10;99.90
31991;DHT22;18508;49.386;8.370;2022-11-13T10:28:13;7.10;99.90
31991;DHT22;18508;49.386;8.370;2022-11-13T10:31:04;7.20;99.90
31991;DHT22;18508;49.386;8.370;2022-11-13T10:33:33;7.40;99.90
31991;DHT22;18508;49.386;8.370;2022-11-13T10:36:11;7.40;99.90
31991;DHT22;18508;49.386;8.370;2022-11-13T10:38:53;7.50;99.90
31991;DHT22;18508;49.386;8.370;2022-11-13T10:41:25;7.70;99.90
31991;DHT22;18508;49.386;8.370;2022-11-13T10:44:16;8.10;99.90
31991;DHT22;18508;49.386;8.370;2022-11-13T10:46:47;7.80;99.90
31991;DHT22;18508;49.386;8.370;2022-11-13T10:49:20;7.80;99.90
31991;DHT22;18508;49.386;8.370;2022-11-13T10:52:01;7.60;99.90
31991;DHT22;18508;49.386;8.370;2022-11-13T10:54:37;7.90;99.90
31991;DHT22;18508;49.386;8.370;2022-11-13T10:57:24;8.00;99.90
31991;DHT22;18508;49.386;8.370;2022-11-13T10:59:57;8.10;99.90
31991;DHT22;18508;49.386;8.370;2022-11-13T11:02:26;8.00;99.90
31991;DHT22;18508;49.386;8.370;2022-11-13T11:05:04;8.10;99.90
31991;DHT22;18508;49.386;8.370;2022-11-13T11:07:39;7.80;99.90
31991;DHT22;18508;49.386;8.370;2022-11-13T11:10:27;7.80;99.90
31991;DHT22;18508;49.386;8.370;2022-11-13T11:13:27;8.00;99.90
31991;DHT22;18508;49.386;8.370;2022-11-13T11:16:00;7.80;99.90
31991;DHT22;18508;49.386;8.370;2022-11-13T11:18:34;7.80;99.90
31991;DHT22;18508;49.386;8.370;2022-11-13T11:21:07;8.00;99.90
31991;DHT22;18508;49.386;8.370;2022-11-13T11:23:41;8.10;99.90
31991;DHT22;18508;49.386;8.370;2022-11-13T11:26:12;7.90;99.90
31991;DHT22;18508;49.386;8.370;2022-11-13T11:28:45;7.90;99.90
31991;DHT22;18508;49.386;8.370;2022-11-13T11:31:22;7.80;99.90
31991;DHT22;18508;49.386;8.370;2022-11-13T11:33:57;8.00;99.90
31991;DHT22;18508;49.386;8.370;2022-11-13T11:36:29;8.30;99.90
31991;DHT22;18508;49.386;8.370;2022-11-13T11:39:05;8.30;99.90
31991;DHT22;18508;49.386;8.370;2022-11-13T11:41:45;8.50;99.90
31991;DHT22;18508;49.386;8.370;2022-11-13T11:44:23;8.60;99.90
31991;DHT22;18508;49.386;8.370;2022-11-13T11:46:56;8.70;99.90
31991;DHT22;18508;49.386;8.370;2022-11-13T11:49:25;8.70;99.90
31991;DHT22;18508;49.386;8.370;2022-11-13T11:52:02;8.90;99.90
31991;DHT22;18508;49.386;8.370;2022-11-13T11:54:39;8.80;99.90
31991;DHT22;18508;49.386;8.370;2022-11-13T11:57:30;8.80;99.90
31991;DHT22;18508;49.386;8.370;2022-11-13T12:00:08;8.90;99.90
31991;DHT22;18508;49.386;8.370;2022-11-13T12:03:01;8.90;99.90
31991;DHT22;18508;49.386;8.370;2022-11-13T12:05:41;9.00;99.90
31991;DHT22;18508;49.386;8.370;2022-11-13T12:08:21;9.10;99.90
31991;DHT22;18508;49.386;8.370;2022-11-13T12:11:04;9.20;99.90
31991;DHT22;18508;49.386;8.370;2022-11-13T12:13:41;9.20;99.90
31991;DHT22;18508;49.386;8.370;2022-11-13T12:16:18;9.20;99.90
31991;DHT22;18508;49.386;8.370;2022-11-13T12:19:00;9.20;99.90
31991;DHT22;18508;49.386;8.370;2022-11-13T12:21:45;9.20;99.90
31991;DHT22;18508;49.386;8.370;2022-11-13T12:24:44;9.20;99.90
31991;DHT22;18508;49.386;8.370;2022-11-13T12:27:23;9.30;99.90
31991;DHT22;18508;49.386;8.370;2022-11-13T12:30:07;9.50;99.90
31991;DHT22;18508;49.386;8.370;2022-11-13T12:33:02;9.50;99.90
31991;DHT22;18508;49.386;8.370;2022-11-13T12:35:40;9.50;99.90
31991;DHT22;18508;49.386;8.370;2022-11-13T12:38:22;9.50;99.90
31991;DHT22;18508;49.386;8.370;2022-11-13T12:41:01;9.60;99.90
31991;DHT22;18508;49.386;8.370;2022-11-13T12:43:54;9.70;99.90
31991;DHT22;18508;49.386;8.370;2022-11-13T12:46:34;9.70;99.90
31991;DHT22;18508;49.386;8.370;2022-11-13T12:49:23;9.80;99.90
31991;DHT22;18508;49.386;8.370;2022-11-13T12:52:00;9.80;99.90
31991;DHT22;18508;49.386;8.370;2022-11-13T12:54:32;9.90;99.90
31991;DHT22;18508;49.386;8.370;2022-11-13T12:57:05;10.00;99.90
31991;DHT22;18508;49.386;8.370;2022-11-13T12:59:36;10.10;99.90
31991;DHT22;18508;49.386;8.370;2022-11-13T13:02:31;10.10;99.90
31991;DHT22;18508;49.386;8.370;2022-11-13T13:05:19;10.20;99.90
31991;DHT22;18508;49.386;8.370;2022-11-13T13:11:27;10.20;99.90
31991;DHT22;18508;49.386;8.370;2022-11-13T13:14:25;10.30;99.90
31991;DHT22;18508;49.386;8.370;2022-11-13T13:17:18;10.40;99.90
31991;DHT22;18508;49.386;8.370;2022-11-13T13:19:57;10.30;99.90
31991;DHT22;18508;49.386;8.370;2022-11-13T13:22:29;10.30;99.90
31991;DHT22;18508;49.386;8.370;2022-11-13T13:25:02;10.50;99.90
31991;DHT22;18508;49.386;8.370;2022-11-13T13:27:37;10.50;99.90
31991;DHT22;18508;49.386;8.370;2022-11-13T13:30:19;10.50;99.90
31991;DHT22;18508;49.386;8.370;2022-11-13T13:32:58;10.50;99.90
31991;DHT22;18508;49.386;8.370;2022-11-13T13:35:36;10.60;99.90
31991;DHT22;18508;49.386;8.370;2022-11-13T13:38:14;10.70;99.90
31991;DHT22;18508;49.386;8.370;2022-11-13T13:40:59;10.70;99.90
31991;DHT22;18508;49.386;8.370;2022-11-13T13:43:42;10.60;99.90
31991;DHT22;18508;49.386;8.370;2022-11-13T13:46:18;10.70;99.90
31991;DHT22;18508;49.386;8.370;2022-11-13T13:48:51;10.70;99.90
31991;DHT22;18508;49.386;8.370;2022-11-13T13:51:29;10.80;99.90
31991;DHT22;18508;49.386;8.370;2022-11-13T13:54:14;10.80;99.90
31991;DHT22;18508;49.386;8.370;2022-11-13T13:56:47;10.90;99.90
31991;DHT22;18508;49.386;8.370;2022-11-13T13:59:35;10.90;99.90
31991;DHT22;18508;49.386;8.370;2022-11-13T14:02:20;11.00;99.90
31991;DHT22;18508;49.386;8.370;2022-11-13T14:04:55;11.00;99.90
31991;DHT22;18508;49.386;8.370;2022-11-13T14:07:31;11.00;99.90
31991;DHT22;18508;49.386;8.370;2022-11-13T14:10:06;11.10;99.90
31991;DHT22;18508;49.386;8.370;2022-11-13T14:12:41;11.10;99.90
31991;DHT22;18508;49.386;8.370;2022-11-13T14:15:25;11.20;99.90
31991;DHT22;18508;49.386;8.370;2022-11-13T14:18:08;11.20;99.90
31991;DHT22;18508;49.386;8.370;2022-11-13T14:20:48;11.20;99.90
31991;DHT22;18508;49.386;8.370;2022-11-13T14:23:28;11.30;99.90
31991;DHT22;18508;49.386;8.370;2022-11-13T14:26:04;11.30;99.90
31991;DHT22;18508;49.386;8.370;2022-11-13T14:28:45;11.30;99.90
31991;DHT22;18508;49.386;8.370;2022-11-13T14:31:25;11.30;99.90
31991;DHT22;18508;49.386;8.370;2022-11-13T14:34:00;11.30;99.90
31991;DHT22;18508;49.386;8.370;2022-11-13T14:36:30;9.70;99.90
31991;DHT22;18508;49.386;8.370;2022-11-13T14:39:18;11.30;99.90
31991;DHT22;18508;49.386;8.370;2022-11-13T14:41:53;11.30;99.90
31991;DHT22;18508;49.386;8.370;2022-11-13T14:44:30;11.30;99.90
31991;DHT22;18508;49.386;8.370;2022-11-13T14:47:03;11.30;99.90
31991;DHT22;18508;49.386;8.370;2022-11-13T14:49:36;11.30;99.90
31991;DHT22;18508;49.386;8.370;2022-11-13T14:52:06;11.30;99.90
31991;DHT22;18508;49.386;8.370;2022-11-13T14:54:37;11.30;99.90
31991;DHT22;18508;49.386;8.370;2022-11-13T14:57:27;11.20;99.90
31991;DHT22;18508;49.386;8.370;2022-11-13T15:00:11;11.20;99.90
31991;DHT22;18508;49.386;8.370;2022-11-13T15:02:42;11.20;99.90
31991;DHT22;18508;49.386;8.370;2022-11-13T15:05:11;11.20;99.90
31991;DHT22;18508;49.386;8.370;2022-11-13T15:07:44;11.10;99.90
31991;DHT22;18508;49.386;8.370;2022-11-13T15:10:26;11.00;99.90
31991;DHT22;18508;49.386;8.370;2022-11-13T15:13:09;11.00;99.90
31991;DHT22;18508;49.386;8.370;2022-11-13T15:15:43;10.90;99.90
31991;DHT22;18508;49.386;8.370;2022-11-13T15:18:28;10.90;99.90
31991;DHT22;18508;49.386;8.370;2022-11-13T15:23:28;10.70;99.90
31991;DHT22;18508;49.386;8.370;2022-11-13T15:25:58;10.50;99.90
31991;DHT22;18508;49.386;8.370;2022-11-13T15:28:29;10.30;99.90
31991;DHT22;18508;49.386;8.370;2022-11-13T15:30:59;10.30;99.90
31991;DHT22;18508;49.386;8.370;2022-11-13T15:33:29;10.10;99.90
31991;DHT22;18508;49.386;8.370;2022-11-13T15:35:59;10.10;99.90
31991;DHT22;18508;49.386;8.370;2022-11-13T15:38:38;9.90;99.90
31991;DHT22;18508;49.386;8.370;2022-11-13T15:41:11;9.80;99.90
31991;DHT22;18508;49.386;8.370;2022-11-13T15:43:44;9.70;99.90
31991;DHT22;18508;49.386;8.370;2022-11-13T15:46:15;9.60;99.90
31991;DHT22;18508;49.386;8.370;2022-11-13T15:48:47;9.40;99.90
31991;DHT22;18508;49.386;8.370;2022-11-13T15:51:19;9.30;99.90
31991;DHT22;18508;49.386;8.370;2022-11-13T15:53:55;9.60;99.90
31991;DHT22;18508;49.386;8.370;2022-11-13T15:56:33;8.90;99.90
31991;DHT22;18508;49.386;8.370;2022-11-13T15:59:09;8.90;99.90
31991;DHT22;18508;49.386;8.370;2022-11-13T16:01:40;8.80;99.90
31991;DHT22;18508;49.386;8.370;2022-11-13T16:04:11;8.70;99.90
31991;DHT22;18508;49.386;8.370;2022-11-13T16:06:44;8.60;99.90
31991;DHT22;18508;49.386;8.370;2022-11-13T16:09:21;8.50;99.90
31991;DHT22;18508;49.386;8.370;2022-11-13T16:11:59;8.30;99.90
31991;DHT22;18508;49.386;8.370;2022-11-13T16:14:36;8.30;99.90
31991;DHT22;18508;49.386;8.370;2022-11-13T16:17:16;8.20;99.90
31991;DHT22;18508;49.386;8.370;2022-11-13T16:19:51;8.10;99.90
31991;DHT22;18508;49.386;8.370;2022-11-13T16:22:23;8.10;99.90
31991;DHT22;18508;49.386;8.370;2022-11-13T16:24:58;7.30;99.90
31991;DHT22;18508;49.386;8.370;2022-11-13T16:27:28;7.90;99.90
31991;DHT22;18508;49.386;8.370;2022-11-13T16:29:57;7.80;99.90
31991;DHT22;18508;49.386;8.370;2022-11-13T16:32:35;7.80;99.90
31991;DHT22;18508;49.386;8.370;2022-11-13T16:35:12;7.70;99.90
31991;DHT22;18508;49.386;8.370;2022-11-13T16:37:44;7.70;99.90
31991;DHT22;18508;49.386;8.370;2022-11-13T16:40:21;7.60;99.90
31991;DHT22;18508;49.386;8.370;2022-11-13T16:42:54;7.50;99.90
31991;DHT22;18508;49.386;8.370;2022-11-13T16:45:24;7.40;99.90
31991;DHT22;18508;49.386;8.370;2022-11-13T16:47:53;7.40;99.90
31991;DHT22;18508;49.386;8.370;2022-11-13T16:50:33;7.30;99.90
31991;DHT22;18508;49.386;8.370;2022-11-13T16:53:11;7.30;99.90
31991;DHT22;18508;49.386;8.370;2022-11-13T16:55:41;7.20;99.90
31991;DHT22;18508;49.386;8.370;2022-11-13T16:58:16;7.10;99.90
31991;DHT22;18508;49.386;8.370;2022-11-13T17:00:49;7.00;99.90
31991;DHT22;18508;49.386;8.370;2022-11-13T17:03:26;7.00;99.90
31991;DHT22;18508;49.386;8.370;2022-11-13T17:05:58;6.90;99.90